createdAt,value
2019-01-19T00:00:11.340Z,1013.34
2019-01-19T00:01:11.269Z,1013.29
2019-01-19T00:02:11.259Z,1013.28
2019-01-19T00:03:11.281Z,1013.29
2019-01-19T00:04:11.281Z,1013.25
2019-01-19T00:05:11.240Z,1013.19
2019-01-19T00:06:11.266Z,1013.22
2019-01-19T00:07:11.221Z,1013.24
2019-01-19T00:08:11.269Z,1013.18
2019-01-19T00:09:11.232Z,1013.19
2019-01-19T00:10:11.223Z,1013.22
2019-01-19T00:11:11.166Z,1013.18
2019-01-19T00:12:11.155Z,1013.16
2019-01-19T00:13:11.170Z,1013.18
2019-01-19T00:14:11.136Z,1013.14
2019-01-19T00:15:11.148Z,1013.15
2019-01-19T00:16:11.166Z,1013.22
2019-01-19T00:17:11.131Z,1013.17
2019-01-19T00:18:11.139Z,1013.19
2019-01-19T00:19:11.100Z,1013.16
2019-01-19T00:20:11.137Z,1013.09
2019-01-19T00:21:11.081Z,1013.16
2019-01-19T00:22:11.102Z,1013.13
2019-01-19T00:23:11.043Z,1013.11
2019-01-19T00:24:11.033Z,1013.14
2019-01-19T00:25:11.171Z,1013.12
2019-01-19T00:26:11.137Z,1013.09
2019-01-19T00:27:11.010Z,1013.07
2019-01-19T00:28:11.002Z,1013.12
2019-01-19T00:29:11.176Z,1013.11
2019-01-19T00:30:10.968Z,1013.09
2019-01-19T00:31:10.985Z,1013.08
2019-01-19T00:32:10.975Z,1013.07
2019-01-19T00:33:10.945Z,1013.04
2019-01-19T00:34:10.940Z,1012.99
2019-01-19T00:35:17.596Z,1013.06
2019-01-19T00:36:11.954Z,1013.03
2019-01-19T00:37:10.912Z,1013.00
2019-01-19T00:38:10.892Z,1013.01
2019-01-19T00:39:10.936Z,1012.99
2019-01-19T00:40:10.872Z,1012.96
2019-01-19T00:41:10.890Z,1012.94
2019-01-19T00:42:10.903Z,1012.95
2019-01-19T00:43:10.846Z,1012.95
2019-01-19T00:44:10.965Z,1013.03
2019-01-19T00:45:10.860Z,1012.95
2019-01-19T00:46:10.835Z,1012.95
2019-01-19T00:47:10.861Z,1012.98
2019-01-19T00:48:10.781Z,1013.01
2019-01-19T00:49:10.848Z,1012.92
2019-01-19T00:50:10.870Z,1012.96
2019-01-19T00:51:10.756Z,1012.96
2019-01-19T00:52:10.823Z,1012.91
2019-01-19T00:53:10.939Z,1012.93
2019-01-19T00:54:10.745Z,1012.97
2019-01-19T00:55:10.739Z,1012.94
2019-01-19T00:56:10.701Z,1012.96
2019-01-19T00:57:10.733Z,1012.96
2019-01-19T00:58:10.749Z,1012.96
2019-01-19T00:59:10.667Z,1012.97
2019-01-19T01:00:10.757Z,1012.97
2019-01-19T01:01:10.687Z,1013.02
2019-01-19T01:02:10.665Z,1012.95
2019-01-19T01:03:10.714Z,1012.93
2019-01-19T01:04:10.624Z,1012.93
2019-01-19T01:05:10.614Z,1012.96
2019-01-19T01:06:10.666Z,1012.96
2019-01-19T01:07:10.596Z,1012.91
2019-01-19T01:08:10.576Z,1012.95
2019-01-19T01:09:10.588Z,1012.95
2019-01-19T01:10:10.581Z,1012.94
2019-01-19T01:11:10.542Z,1012.94
2019-01-19T01:12:10.553Z,1012.91
2019-01-19T01:13:10.536Z,1012.92
2019-01-19T01:14:10.543Z,1012.88
2019-01-19T01:15:10.533Z,1012.94
2019-01-19T01:16:10.503Z,1012.95
2019-01-19T01:17:10.497Z,1012.93
2019-01-19T01:18:10.483Z,1012.92
2019-01-19T01:19:10.508Z,1012.95
2019-01-19T01:20:10.455Z,1012.91
2019-01-19T01:21:10.470Z,1012.91
2019-01-19T01:22:10.433Z,1012.96
2019-01-19T01:23:10.539Z,1012.94
2019-01-19T01:24:10.411Z,1012.89
2019-01-19T01:25:10.568Z,1012.95
2019-01-19T01:26:10.466Z,1012.94
2019-01-19T01:27:10.376Z,1012.95
2019-01-19T01:28:10.396Z,1012.94
2019-01-19T01:29:10.354Z,1012.92
2019-01-19T01:30:10.385Z,1012.95
2019-01-19T01:31:10.385Z,1012.99
2019-01-19T01:32:10.324Z,1012.95
2019-01-19T01:33:10.336Z,1012.96
2019-01-19T01:34:10.342Z,1012.98
2019-01-19T01:35:10.347Z,1012.95
2019-01-19T01:36:10.311Z,1012.93
2019-01-19T01:37:10.278Z,1012.95
2019-01-19T01:38:10.320Z,1012.97
2019-01-19T01:39:10.262Z,1012.96
2019-01-19T01:40:10.242Z,1012.97
2019-01-19T01:41:10.394Z,1012.95
2019-01-19T01:42:10.224Z,1012.96
2019-01-19T01:43:10.216Z,1012.93
2019-01-19T01:44:10.294Z,1012.91
2019-01-19T01:45:10.223Z,1013.01
2019-01-19T01:46:10.182Z,1012.91
2019-01-19T01:47:10.210Z,1012.93
2019-01-19T01:48:10.170Z,1012.91
2019-01-19T01:49:10.170Z,1012.91
2019-01-19T01:50:10.142Z,1012.91
2019-01-19T01:51:10.131Z,1012.94
2019-01-19T01:52:10.314Z,1012.92
2019-01-19T01:53:10.110Z,1012.88
2019-01-19T01:54:10.101Z,1012.83
2019-01-19T01:55:10.115Z,1012.87
2019-01-19T01:56:10.074Z,1012.88
2019-01-19T01:57:10.107Z,1012.82
2019-01-19T01:58:10.179Z,1012.86
2019-01-19T01:59:10.054Z,1012.82
2019-01-19T02:00:10.038Z,1012.81
2019-01-19T02:01:10.026Z,1012.81
2019-01-19T02:02:10.020Z,1012.78
2019-01-19T02:03:10.090Z,1012.78
2019-01-19T02:04:09.997Z,1012.80
2019-01-19T02:05:09.980Z,1012.80
2019-01-19T02:06:09.981Z,1012.75
2019-01-19T02:07:10.084Z,1012.75
2019-01-19T02:08:10.079Z,1012.77
2019-01-19T02:09:09.943Z,1012.74
2019-01-19T02:10:09.933Z,1012.73
2019-01-19T02:11:09.980Z,1012.73
2019-01-19T02:12:09.922Z,1012.73
2019-01-19T02:13:09.935Z,1012.76
2019-01-19T02:14:09.915Z,1012.73
2019-01-19T02:15:09.907Z,1012.71
2019-01-19T02:16:09.867Z,1012.67
2019-01-19T02:17:09.878Z,1012.72
2019-01-19T02:18:09.845Z,1012.72
2019-01-19T02:19:09.861Z,1012.71
2019-01-19T02:20:09.839Z,1012.76
2019-01-19T02:21:09.839Z,1012.76
2019-01-19T02:22:09.916Z,1012.72
2019-01-19T02:23:09.906Z,1012.72
2019-01-19T02:24:09.836Z,1012.72
2019-01-19T02:25:09.779Z,1012.72
2019-01-19T02:26:09.809Z,1012.69
2019-01-19T02:27:09.761Z,1012.71
2019-01-19T02:28:09.879Z,1012.74
2019-01-19T02:29:09.779Z,1012.66
2019-01-19T02:30:09.726Z,1012.69
2019-01-19T02:31:09.785Z,1012.63
2019-01-19T02:32:09.711Z,1012.57
2019-01-19T02:33:09.691Z,1012.58
2019-01-19T02:34:09.691Z,1012.59
2019-01-19T02:35:09.875Z,1012.56
2019-01-19T02:36:09.671Z,1012.55
2019-01-19T02:37:09.709Z,1012.55
2019-01-19T02:38:09.652Z,1012.54
2019-01-19T02:39:09.686Z,1012.53
2019-01-19T02:40:09.648Z,1012.51
2019-01-19T02:41:09.608Z,1012.50
2019-01-19T02:42:09.730Z,1012.48
2019-01-19T02:43:09.592Z,1012.48
2019-01-19T02:44:09.622Z,1012.44
2019-01-19T02:45:09.601Z,1012.45
2019-01-19T02:46:09.689Z,1012.48
2019-01-19T02:47:09.552Z,1012.47
2019-01-19T02:48:09.540Z,1012.46
2019-01-19T02:49:09.562Z,1012.42
2019-01-19T02:50:09.537Z,1012.39
2019-01-19T02:51:09.575Z,1012.39
2019-01-19T02:52:09.513Z,1012.36
2019-01-19T02:53:09.591Z,1012.36
2019-01-19T02:54:09.564Z,1012.38
2019-01-19T02:55:09.467Z,1012.39
2019-01-19T02:56:09.484Z,1012.39
2019-01-19T02:57:09.453Z,1012.40
2019-01-19T02:58:09.524Z,1012.30
2019-01-19T02:59:09.444Z,1012.37
2019-01-19T03:00:09.468Z,1012.32
2019-01-19T03:01:09.714Z,1012.34
2019-01-19T03:02:09.496Z,1012.29
2019-01-19T03:03:09.397Z,1012.29
2019-01-19T03:04:09.373Z,1012.26
2019-01-19T03:05:09.430Z,1012.32
2019-01-19T03:06:09.370Z,1012.35
2019-01-19T03:07:09.372Z,1012.35
2019-01-19T03:08:09.402Z,1012.31
2019-01-19T03:09:09.348Z,1012.30
2019-01-19T03:10:09.303Z,1012.32
2019-01-19T03:11:09.439Z,1012.35
2019-01-19T03:12:09.342Z,1012.35
2019-01-19T03:13:09.289Z,1012.35
2019-01-19T03:14:09.266Z,1012.30
2019-01-19T03:15:09.303Z,1012.24
2019-01-19T03:16:09.270Z,1012.29
2019-01-19T03:17:09.342Z,1012.27
2019-01-19T03:18:09.226Z,1012.24
2019-01-19T03:19:09.255Z,1012.30
2019-01-19T03:20:09.206Z,1012.25
2019-01-19T03:21:09.198Z,1012.30
2019-01-19T03:22:09.191Z,1012.29
2019-01-19T03:23:09.277Z,1012.25
2019-01-19T03:24:09.162Z,1012.24
2019-01-19T03:25:09.161Z,1012.25
2019-01-19T03:26:09.166Z,1012.25
2019-01-19T03:27:09.127Z,1012.28
2019-01-19T03:28:09.145Z,1012.22
2019-01-19T03:29:09.119Z,1012.16
2019-01-19T03:30:09.109Z,1012.15
2019-01-19T03:31:09.086Z,1012.21
2019-01-19T03:32:09.099Z,1012.11
2019-01-19T03:33:09.190Z,1012.13
2019-01-19T03:34:09.056Z,1012.14
2019-01-19T03:35:09.130Z,1012.12
2019-01-19T03:36:09.047Z,1012.12
2019-01-19T03:37:09.025Z,1012.08
2019-01-19T03:38:09.039Z,1012.10
2019-01-19T03:39:09.028Z,1012.10
2019-01-19T03:40:09.053Z,1012.09
2019-01-19T03:41:09.018Z,1012.11
2019-01-19T03:42:08.975Z,1012.07
2019-01-19T03:43:09.092Z,1012.11
2019-01-19T03:44:09.002Z,1012.11
2019-01-19T03:45:08.955Z,1012.06
2019-01-19T03:46:08.947Z,1012.06
2019-01-19T03:47:08.927Z,1012.07
2019-01-19T03:48:08.928Z,1012.09
2019-01-19T03:49:08.926Z,1012.07
2019-01-19T03:50:08.911Z,1012.07
2019-01-19T03:51:08.894Z,1012.13
2019-01-19T03:52:08.885Z,1011.99
2019-01-19T03:53:08.865Z,1012.00
2019-01-19T03:54:08.877Z,1011.97
2019-01-19T03:55:08.841Z,1011.95
2019-01-19T03:56:08.834Z,1011.97
2019-01-19T03:57:08.840Z,1011.96
2019-01-19T03:58:08.837Z,1011.93
2019-01-19T03:59:08.943Z,1011.91
2019-01-19T04:00:08.861Z,1011.98
2019-01-19T04:01:08.807Z,1011.93
2019-01-19T04:02:08.790Z,1011.96
2019-01-19T04:03:08.782Z,1011.90
2019-01-19T04:04:08.857Z,1011.94
2019-01-19T04:05:08.758Z,1011.94
2019-01-19T04:06:12.913Z,1011.91
2019-01-19T04:07:08.740Z,1011.97
2019-01-19T04:08:08.877Z,1011.95
2019-01-19T04:09:08.901Z,1011.95
2019-01-19T04:10:08.764Z,1011.97
2019-01-19T04:11:08.671Z,1011.93
2019-01-19T04:12:08.853Z,1011.88
2019-01-19T04:13:08.740Z,1011.91
2019-01-19T04:14:08.645Z,1011.88
2019-01-19T04:15:08.629Z,1011.92
2019-01-19T04:16:08.669Z,1011.88
2019-01-19T04:17:08.649Z,1011.87
2019-01-19T04:18:08.593Z,1011.85
2019-01-19T04:19:08.627Z,1011.82
2019-01-19T04:20:08.721Z,1011.85
2019-01-19T04:21:08.803Z,1011.85
2019-01-19T04:22:08.720Z,1011.83
2019-01-19T04:23:08.551Z,1011.80
2019-01-19T04:24:08.534Z,1011.84
2019-01-19T04:25:08.661Z,1011.79
2019-01-19T04:26:08.569Z,1011.81
2019-01-19T04:27:08.604Z,1011.79
2019-01-19T04:28:08.493Z,1011.81
2019-01-19T04:29:08.693Z,1011.77
2019-01-19T04:30:08.472Z,1011.82
2019-01-19T04:31:08.459Z,1011.78
2019-01-19T04:32:08.484Z,1011.85
2019-01-19T04:33:08.439Z,1011.79
2019-01-19T04:34:08.453Z,1011.79
2019-01-19T04:35:08.432Z,1011.79
2019-01-19T04:36:08.438Z,1011.83
2019-01-19T04:37:08.646Z,1011.79
2019-01-19T04:38:08.481Z,1011.76
2019-01-19T04:39:08.401Z,1011.74
2019-01-19T04:40:08.444Z,1011.77
2019-01-19T04:41:08.367Z,1011.79
2019-01-19T04:42:08.384Z,1011.72
2019-01-19T04:43:08.356Z,1011.72
2019-01-19T04:44:08.391Z,1011.73
2019-01-19T04:45:08.314Z,1011.74
2019-01-19T04:46:08.434Z,1011.69
2019-01-19T04:47:08.535Z,1011.72
2019-01-19T04:48:08.287Z,1011.71
2019-01-19T04:49:08.310Z,1011.72
2019-01-19T04:50:08.269Z,1011.76
2019-01-19T04:51:08.264Z,1011.72
2019-01-19T04:52:08.459Z,1011.73
2019-01-19T04:53:08.263Z,1011.68
2019-01-19T04:54:08.320Z,1011.71
2019-01-19T04:55:08.224Z,1011.71
2019-01-19T04:56:08.256Z,1011.67
2019-01-19T04:57:08.203Z,1011.68
2019-01-19T04:58:08.216Z,1011.71
2019-01-19T04:59:08.218Z,1011.72
2019-01-19T05:00:08.168Z,1011.75
2019-01-19T05:01:08.280Z,1011.69
2019-01-19T05:02:08.364Z,1011.68
2019-01-19T05:03:08.159Z,1011.74
2019-01-19T05:04:08.212Z,1011.69
2019-01-19T05:05:08.118Z,1011.70
2019-01-19T05:06:12.422Z,1011.68
2019-01-19T05:07:08.223Z,1011.64
2019-01-19T05:08:08.086Z,1011.69
2019-01-19T05:09:08.142Z,1011.69
2019-01-19T05:10:08.214Z,1011.65
2019-01-19T05:11:08.088Z,1011.66
2019-01-19T05:12:08.037Z,1011.66
2019-01-19T05:13:08.121Z,1011.64
2019-01-19T05:14:08.120Z,1011.65
2019-01-19T05:15:08.019Z,1011.67
2019-01-19T05:16:07.996Z,1011.64
2019-01-19T05:17:07.993Z,1011.64
2019-01-19T05:18:07.981Z,1011.64
2019-01-19T05:19:08.100Z,1011.62
2019-01-19T05:20:07.952Z,1011.60
2019-01-19T05:21:07.942Z,1011.59
2019-01-19T05:22:08.030Z,1011.61
2019-01-19T05:23:07.924Z,1011.62
2019-01-19T05:24:07.907Z,1011.63
2019-01-19T05:25:07.984Z,1011.63
2019-01-19T05:26:07.943Z,1011.61
2019-01-19T05:27:07.886Z,1011.58
2019-01-19T05:28:07.870Z,1011.58
2019-01-19T05:29:07.860Z,1011.58
2019-01-19T05:30:07.869Z,1011.65
2019-01-19T05:31:07.834Z,1011.64
2019-01-19T05:32:07.869Z,1011.62
2019-01-19T05:33:07.907Z,1011.63
2019-01-19T05:34:07.844Z,1011.64
2019-01-19T05:35:08.056Z,1011.63
2019-01-19T05:36:07.790Z,1011.61
2019-01-19T05:37:07.779Z,1011.65
2019-01-19T05:38:07.768Z,1011.60
2019-01-19T05:39:07.763Z,1011.63
2019-01-19T05:40:07.871Z,1011.59
2019-01-19T05:41:07.768Z,1011.58
2019-01-19T05:42:07.833Z,1011.59
2019-01-19T05:43:07.729Z,1011.61
2019-01-19T05:44:07.831Z,1011.61
2019-01-19T05:45:07.691Z,1011.57
2019-01-19T05:46:07.719Z,1011.55
2019-01-19T05:47:07.682Z,1011.58
2019-01-19T05:48:07.731Z,1011.55
2019-01-19T05:49:07.679Z,1011.57
2019-01-19T05:50:07.639Z,1011.59
2019-01-19T05:51:07.640Z,1011.59
2019-01-19T05:52:07.724Z,1011.56
2019-01-19T05:53:07.649Z,1011.59
2019-01-19T05:54:07.602Z,1011.59
2019-01-19T05:55:07.674Z,1011.61
2019-01-19T05:56:07.577Z,1011.57
2019-01-19T05:57:07.610Z,1011.54
2019-01-19T05:58:07.570Z,1011.52
2019-01-19T05:59:07.573Z,1011.59
2019-01-19T06:00:07.536Z,1011.56
2019-01-19T06:01:07.553Z,1011.59
2019-01-19T06:02:07.843Z,1011.61
2019-01-19T06:03:07.521Z,1011.57
2019-01-19T06:04:07.567Z,1011.55
2019-01-19T06:05:07.510Z,1011.58
2019-01-19T06:06:07.481Z,1011.61
2019-01-19T06:07:07.498Z,1011.58
2019-01-19T06:08:07.463Z,1011.55
2019-01-19T06:09:07.459Z,1011.54
2019-01-19T06:10:07.467Z,1011.48
2019-01-19T06:11:07.439Z,1011.51
2019-01-19T06:12:07.640Z,1011.45
2019-01-19T06:13:07.575Z,1011.44
2019-01-19T06:14:07.398Z,1011.44
2019-01-19T06:15:07.427Z,1011.42
2019-01-19T06:16:07.396Z,1011.45
2019-01-19T06:17:07.433Z,1011.46
2019-01-19T06:18:07.562Z,1011.45
2019-01-19T06:19:07.376Z,1011.43
2019-01-19T06:20:07.354Z,1011.41
2019-01-19T06:21:07.377Z,1011.43
2019-01-19T06:22:07.348Z,1011.41
2019-01-19T06:23:07.330Z,1011.42
2019-01-19T06:24:07.295Z,1011.41
2019-01-19T06:25:07.283Z,1011.46
2019-01-19T06:26:07.289Z,1011.42
2019-01-19T06:27:07.288Z,1011.42
2019-01-19T06:28:07.342Z,1011.45
2019-01-19T06:29:07.454Z,1011.44
2019-01-19T06:30:07.330Z,1011.44
2019-01-19T06:31:07.442Z,1011.47
2019-01-19T06:32:07.230Z,1011.41
2019-01-19T06:33:07.427Z,1011.48
2019-01-19T06:34:07.190Z,1011.45
2019-01-19T06:35:07.197Z,1011.48
2019-01-19T06:36:07.160Z,1011.44
2019-01-19T06:37:07.165Z,1011.41
2019-01-19T06:38:07.221Z,1011.41
2019-01-19T06:39:07.696Z,1011.38
2019-01-19T06:40:07.215Z,1011.34
2019-01-19T06:41:07.138Z,1011.42
2019-01-19T06:42:07.098Z,1011.33
2019-01-19T06:43:07.085Z,1011.42
2019-01-19T06:44:07.122Z,1011.42
2019-01-19T06:45:07.213Z,1011.46
2019-01-19T06:46:07.061Z,1011.43
2019-01-19T06:47:07.046Z,1011.41
2019-01-19T06:48:07.035Z,1011.39
2019-01-19T06:49:07.055Z,1011.37
2019-01-19T06:50:07.026Z,1011.32
2019-01-19T06:51:07.435Z,1011.27
2019-01-19T06:52:07.002Z,1011.33
2019-01-19T06:53:06.987Z,1011.39
2019-01-19T06:54:07.006Z,1011.41
2019-01-19T06:55:07.264Z,1011.37
2019-01-19T06:56:06.956Z,1011.45
2019-01-19T06:57:06.973Z,1011.36
2019-01-19T06:58:06.936Z,1011.42
2019-01-19T06:59:06.954Z,1011.43
2019-01-19T07:00:07.152Z,1011.41
2019-01-19T07:01:07.155Z,1011.45
2019-01-19T07:02:06.953Z,1011.41
2019-01-19T07:03:06.880Z,1011.35
2019-01-19T07:04:07.131Z,1011.42
2019-01-19T07:05:06.887Z,1011.41
2019-01-19T07:06:06.913Z,1011.44
2019-01-19T07:07:06.846Z,1011.46
2019-01-19T07:08:06.842Z,1011.36
2019-01-19T07:09:07.139Z,1011.39
2019-01-19T07:10:07.014Z,1011.37
2019-01-19T07:11:06.799Z,1011.39
2019-01-19T07:12:06.794Z,1011.35
2019-01-19T07:13:06.902Z,1011.42
2019-01-19T07:14:07.046Z,1011.43
2019-01-19T07:15:06.796Z,1011.44
2019-01-19T07:16:06.770Z,1011.45
2019-01-19T07:17:07.058Z,1011.44
2019-01-19T07:18:06.742Z,1011.50
2019-01-19T07:19:06.971Z,1011.43
2019-01-19T07:20:06.842Z,1011.46
2019-01-19T07:21:06.708Z,1011.46
2019-01-19T07:22:06.692Z,1011.44
2019-01-19T07:23:06.677Z,1011.48
2019-01-19T07:24:06.688Z,1011.47
2019-01-19T07:25:06.656Z,1011.43
2019-01-19T07:26:06.747Z,1011.48
2019-01-19T07:27:06.702Z,1011.47
2019-01-19T07:28:06.633Z,1011.46
2019-01-19T07:29:06.626Z,1011.49
2019-01-19T07:30:06.604Z,1011.47
2019-01-19T07:31:06.622Z,1011.50
2019-01-19T07:32:06.626Z,1011.51
2019-01-19T07:33:06.826Z,1011.50
2019-01-19T07:34:06.785Z,1011.54
2019-01-19T07:35:06.596Z,1011.54
2019-01-19T07:36:06.585Z,1011.57
2019-01-19T07:37:09.953Z,1011.52
2019-01-19T07:38:06.553Z,1011.53
2019-01-19T07:39:06.599Z,1011.48
2019-01-19T07:40:06.690Z,1011.54
2019-01-19T07:41:06.517Z,1011.53
2019-01-19T07:42:06.727Z,1011.57
2019-01-19T07:43:06.492Z,1011.57
2019-01-19T07:44:06.461Z,1011.51
2019-01-19T07:45:06.477Z,1011.55
2019-01-19T07:46:06.516Z,1011.55
2019-01-19T07:47:06.625Z,1011.57
2019-01-19T07:48:06.627Z,1011.56
2019-01-19T07:49:06.500Z,1011.54
2019-01-19T07:50:06.400Z,1011.55
2019-01-19T07:51:06.397Z,1011.56
2019-01-19T07:52:06.399Z,1011.56
2019-01-19T07:53:06.357Z,1011.54
2019-01-19T07:54:06.464Z,1011.54
2019-01-19T07:55:08.035Z,1011.57
2019-01-19T07:56:06.337Z,1011.52
2019-01-19T07:57:06.375Z,1011.52
2019-01-19T07:58:06.317Z,1011.58
2019-01-19T07:59:06.354Z,1011.59
2019-01-19T08:00:06.289Z,1011.59
2019-01-19T08:01:06.287Z,1011.57
2019-01-19T08:02:06.302Z,1011.60
2019-01-19T08:03:06.274Z,1011.61
2019-01-19T08:04:06.553Z,1011.61
2019-01-19T08:05:06.246Z,1011.63
2019-01-19T08:06:06.234Z,1011.63
2019-01-19T08:07:06.269Z,1011.65
2019-01-19T08:08:06.402Z,1011.63
2019-01-19T08:09:06.196Z,1011.66
2019-01-19T08:10:06.224Z,1011.71
2019-01-19T08:11:06.269Z,1011.63
2019-01-19T08:12:06.196Z,1011.71
2019-01-19T08:13:06.249Z,1011.61
2019-01-19T08:14:06.161Z,1011.68
2019-01-19T08:15:06.334Z,1011.72
2019-01-19T08:16:06.351Z,1011.66
2019-01-19T08:17:06.114Z,1011.68
2019-01-19T08:18:06.114Z,1011.70
2019-01-19T08:19:06.231Z,1011.63
2019-01-19T08:20:06.319Z,1011.68
2019-01-19T08:21:06.152Z,1011.61
2019-01-19T08:22:06.060Z,1011.66
2019-01-19T08:23:06.188Z,1011.71
2019-01-19T08:24:06.084Z,1011.66
2019-01-19T08:25:06.041Z,1011.71
2019-01-19T08:26:06.033Z,1011.67
2019-01-19T08:27:06.036Z,1011.74
2019-01-19T08:28:06.178Z,1011.74
2019-01-19T08:29:06.017Z,1011.71
2019-01-19T08:30:06.015Z,1011.69
2019-01-19T08:31:05.974Z,1011.68
2019-01-19T08:32:05.979Z,1011.70
2019-01-19T08:33:05.982Z,1011.69
2019-01-19T08:34:06.049Z,1011.68
2019-01-19T08:35:06.062Z,1011.69
2019-01-19T08:36:05.960Z,1011.70
2019-01-19T08:37:06.047Z,1011.66
2019-01-19T08:38:05.991Z,1011.67
2019-01-19T08:39:06.032Z,1011.60
2019-01-19T08:40:05.946Z,1011.65
2019-01-19T08:41:05.875Z,1011.64
2019-01-19T08:42:05.873Z,1011.62
2019-01-19T08:43:05.878Z,1011.59
2019-01-19T08:44:05.841Z,1011.54
2019-01-19T08:45:05.942Z,1011.58
2019-01-19T08:46:05.806Z,1011.54
2019-01-19T08:47:05.799Z,1011.54
2019-01-19T08:48:05.833Z,1011.56
2019-01-19T08:49:05.795Z,1011.56
2019-01-19T08:50:05.840Z,1011.50
2019-01-19T08:51:05.768Z,1011.49
2019-01-19T08:52:05.763Z,1011.48
2019-01-19T08:53:05.747Z,1011.47
2019-01-19T08:54:05.745Z,1011.47
2019-01-19T08:55:07.864Z,1011.47
2019-01-19T08:56:05.706Z,1011.46
2019-01-19T08:57:05.692Z,1011.47
2019-01-19T08:58:05.704Z,1011.54
2019-01-19T08:59:05.685Z,1011.49
2019-01-19T09:00:05.671Z,1011.49
2019-01-19T09:01:05.684Z,1011.45
2019-01-19T09:02:05.641Z,1011.50
2019-01-19T09:03:05.647Z,1011.45
2019-01-19T09:04:05.642Z,1011.49
2019-01-19T09:05:05.623Z,1011.49
2019-01-19T09:06:05.660Z,1011.50
2019-01-19T09:07:05.590Z,1011.50
2019-01-19T09:08:05.712Z,1011.47
2019-01-19T09:09:05.584Z,1011.46
2019-01-19T09:10:05.564Z,1011.48
2019-01-19T09:11:05.743Z,1011.48
2019-01-19T09:12:05.563Z,1011.47
2019-01-19T09:13:05.530Z,1011.41
2019-01-19T09:14:05.518Z,1011.38
2019-01-19T09:15:05.522Z,1011.41
2019-01-19T09:16:05.529Z,1011.40
2019-01-19T09:17:05.489Z,1011.41
2019-01-19T09:18:05.541Z,1011.40
2019-01-19T09:19:05.483Z,1011.38
2019-01-19T09:20:05.461Z,1011.38
2019-01-19T09:21:05.510Z,1011.39
2019-01-19T09:22:05.438Z,1011.44
2019-01-19T09:23:05.452Z,1011.38
2019-01-19T09:24:05.415Z,1011.44
2019-01-19T09:25:05.412Z,1011.42
2019-01-19T09:26:05.450Z,1011.40
2019-01-19T09:27:05.452Z,1011.45
2019-01-19T09:28:05.379Z,1011.40
2019-01-19T09:29:05.369Z,1011.41
2019-01-19T09:30:05.355Z,1011.45
2019-01-19T09:31:05.375Z,1011.42
2019-01-19T09:32:05.480Z,1011.44
2019-01-19T09:33:05.331Z,1011.42
2019-01-19T09:34:05.319Z,1011.41
2019-01-19T09:35:05.306Z,1011.43
2019-01-19T09:36:05.319Z,1011.44
2019-01-19T09:37:05.385Z,1011.46
2019-01-19T09:38:05.397Z,1011.47
2019-01-19T09:39:05.288Z,1011.54
2019-01-19T09:40:05.255Z,1011.51
2019-01-19T09:41:05.237Z,1011.49
2019-01-19T09:42:05.252Z,1011.58
2019-01-19T09:43:05.218Z,1011.52
2019-01-19T09:44:05.312Z,1011.50
2019-01-19T09:45:05.197Z,1011.53
2019-01-19T09:46:05.188Z,1011.54
2019-01-19T09:47:05.219Z,1011.61
2019-01-19T09:48:05.181Z,1011.58
2019-01-19T09:49:05.373Z,1011.58
2019-01-19T09:50:05.226Z,1011.57
2019-01-19T09:51:05.135Z,1011.57
2019-01-19T09:52:05.134Z,1011.58
2019-01-19T09:53:05.166Z,1011.56
2019-01-19T09:54:05.122Z,1011.57
2019-01-19T09:55:05.837Z,1011.53
2019-01-19T09:56:05.207Z,1011.52
2019-01-19T09:57:05.145Z,1011.51
2019-01-19T09:58:05.104Z,1011.48
2019-01-19T09:59:05.077Z,1011.44
2019-01-19T10:00:05.040Z,1011.50
2019-01-19T10:01:05.026Z,1011.49
2019-01-19T10:02:05.036Z,1011.45
2019-01-19T10:03:05.053Z,1011.43
2019-01-19T10:04:05.046Z,1011.41
2019-01-19T10:05:05.082Z,1011.39
2019-01-19T10:06:05.010Z,1011.38
2019-01-19T10:07:04.963Z,1011.42
2019-01-19T10:08:04.960Z,1011.37
2019-01-19T10:09:05.737Z,1011.32
2019-01-19T10:10:04.993Z,1011.32
2019-01-19T10:11:04.971Z,1011.33
2019-01-19T10:12:05.111Z,1011.36
2019-01-19T10:13:04.937Z,1011.31
2019-01-19T10:14:05.137Z,1011.29
2019-01-19T10:15:04.930Z,1011.27
2019-01-19T10:16:04.883Z,1011.25
2019-01-19T10:17:04.858Z,1011.26
2019-01-19T10:18:05.100Z,1011.30
2019-01-19T10:19:04.940Z,1011.25
2019-01-19T10:20:04.842Z,1011.20
2019-01-19T10:21:04.837Z,1011.21
2019-01-19T10:22:05.075Z,1011.24
2019-01-19T10:23:04.859Z,1011.23
2019-01-19T10:24:05.027Z,1011.20
2019-01-19T10:25:04.815Z,1011.26
2019-01-19T10:26:04.785Z,1011.22
2019-01-19T10:27:04.813Z,1011.21
2019-01-19T10:28:04.792Z,1011.20
2019-01-19T10:29:04.936Z,1011.19
2019-01-19T10:30:04.768Z,1011.20
2019-01-19T10:31:04.715Z,1011.16
2019-01-19T10:32:04.749Z,1011.13
2019-01-19T10:33:04.697Z,1011.12
2019-01-19T10:34:04.702Z,1011.10
2019-01-19T10:35:04.782Z,1011.09
2019-01-19T10:36:04.677Z,1011.07
2019-01-19T10:37:04.652Z,1011.07
2019-01-19T10:38:04.751Z,1011.06
2019-01-19T10:39:04.646Z,1011.05
2019-01-19T10:40:04.664Z,1011.01
2019-01-19T10:41:04.614Z,1010.96
2019-01-19T10:42:04.612Z,1011.02
2019-01-19T10:43:04.589Z,1010.99
2019-01-19T10:44:04.579Z,1010.95
2019-01-19T10:45:04.592Z,1010.93
2019-01-19T10:46:04.620Z,1010.92
2019-01-19T10:47:04.561Z,1010.88
2019-01-19T10:48:04.554Z,1010.86
2019-01-19T10:49:04.620Z,1010.86
2019-01-19T10:50:04.530Z,1010.86
2019-01-19T10:51:04.698Z,1010.78
2019-01-19T10:52:04.515Z,1010.77
2019-01-19T10:53:04.479Z,1010.70
2019-01-19T10:54:04.479Z,1010.71
2019-01-19T10:55:04.487Z,1010.71
2019-01-19T10:56:04.585Z,1010.70
2019-01-19T10:57:04.447Z,1010.64
2019-01-19T10:58:04.521Z,1010.63
2019-01-19T10:59:04.438Z,1010.68
2019-01-19T11:00:04.417Z,1010.55
2019-01-19T11:01:04.552Z,1010.56
2019-01-19T11:02:04.412Z,1010.65
2019-01-19T11:03:04.383Z,1010.59
2019-01-19T11:04:04.392Z,1010.58
2019-01-19T11:05:04.365Z,1010.56
2019-01-19T11:06:04.373Z,1010.55
2019-01-19T11:07:04.333Z,1010.52
2019-01-19T11:08:04.343Z,1010.55
2019-01-19T11:09:04.340Z,1010.48
2019-01-19T11:10:04.312Z,1010.47
2019-01-19T11:11:04.323Z,1010.43
2019-01-19T11:12:04.545Z,1010.41
2019-01-19T11:13:04.304Z,1010.40
2019-01-19T11:14:04.262Z,1010.35
2019-01-19T11:15:04.265Z,1010.36
2019-01-19T11:16:04.305Z,1010.37
2019-01-19T11:17:04.453Z,1010.36
2019-01-19T11:18:04.312Z,1010.32
2019-01-19T11:19:04.309Z,1010.35
2019-01-19T11:20:04.214Z,1010.32
2019-01-19T11:21:04.192Z,1010.32
2019-01-19T11:22:04.206Z,1010.30
2019-01-19T11:23:04.173Z,1010.30
2019-01-19T11:24:04.221Z,1010.30
2019-01-19T11:25:04.150Z,1010.27
2019-01-19T11:26:04.258Z,1010.29
2019-01-19T11:27:04.218Z,1010.25
2019-01-19T11:28:04.172Z,1010.20
2019-01-19T11:29:04.108Z,1010.20
2019-01-19T11:30:04.113Z,1010.17
2019-01-19T11:31:04.112Z,1010.15
2019-01-19T11:32:04.316Z,1010.18
2019-01-19T11:33:04.071Z,1010.15
2019-01-19T11:34:04.054Z,1010.11
2019-01-19T11:35:04.042Z,1010.11
2019-01-19T11:36:04.081Z,1010.10
2019-01-19T11:37:04.023Z,1010.12
2019-01-19T11:38:04.057Z,1010.04
2019-01-19T11:39:04.038Z,1010.04
2019-01-19T11:40:04.010Z,1010.01
2019-01-19T11:41:04.007Z,1009.99
2019-01-19T11:42:04.039Z,1010.00
2019-01-19T11:43:04.100Z,1009.97
2019-01-19T11:44:04.280Z,1009.99
2019-01-19T11:45:04.030Z,1009.94
2019-01-19T11:46:03.946Z,1009.90
2019-01-19T11:47:04.379Z,1009.92
2019-01-19T11:48:04.081Z,1009.85
2019-01-19T11:49:04.046Z,1009.83
2019-01-19T11:50:03.954Z,1009.84
2019-01-19T11:51:04.029Z,1009.82
2019-01-19T11:52:03.866Z,1009.80
2019-01-19T11:53:03.879Z,1009.78
2019-01-19T11:54:03.886Z,1009.74
2019-01-19T11:55:03.870Z,1009.77
2019-01-19T11:56:03.827Z,1009.76
2019-01-19T11:57:04.135Z,1009.73
2019-01-19T11:58:03.827Z,1009.75
2019-01-19T11:59:03.869Z,1009.74
2019-01-19T12:00:03.866Z,1009.72
2019-01-19T12:01:03.782Z,1009.69
2019-01-19T12:02:03.757Z,1009.72
2019-01-19T12:03:03.745Z,1009.67
2019-01-19T12:04:03.944Z,1009.64
2019-01-19T12:05:03.762Z,1009.66